Nearby METAR Reports

 

EKAH - Tirstrup (civ/Mi, Denmark
Distance from station: SSW 25km
Updated: 27/11/2021 23:20
Mostly cloudy
Mostly cloudy
 Wind from NNW
Wind: NNW 6 km/h
Temperature: 3°C
Dew Point: 3°C
Humidity: 100%
Barometer: 995 hPa
Clouds: Mostly cloudy
Visibility: 10 km
Cloud details: Partly cloudy 457 m
Mostly cloudy 975 m
Mostly cloudy 2012 m
2021/11/27 22:20 EKAH 272220Z AUTO 33003KT 9999 SCT015/// BKN032/// BKN066/// 03/03 Q0995
EKYT - Alborg, Denmark
Distance from station: NW 91km
Updated: 27/11/2021 23:30
Light drizzle, Overcast
Light drizzle, Overcast
 Wind from NE
Wind: NE 15 km/h
Temperature: 2°C
Wind Chill: -2°C
Dew Point: 2°C
Humidity: 100%
Barometer: 996 hPa
Summary: Light Drizzle
Clouds: Overcast
Visibility: 10 km
Cloud details: Mostly cloudy 274 m
Overcast 2621 m
2021/11/27 22:30 EKYT 272230Z AUTO 05008KT 9999 -DZ BKN009/// OVC086/// 02/02 Q0996
EKKA - Karup (dan-Afb), Denmark
Distance from station: W 107km
Updated: 27/11/2021 23:20
Light snow, Overcast
Light snow, Overcast
 Wind from NNE
Wind: NNE 9 km/h
Temperature: 0°C
Wind Chill: -3°C
Dew Point: 0°C
Humidity: 100%
Barometer: 995 hPa
Summary: Light Snow
Clouds: Overcast
Visibility: 10 km
Cloud details: Mostly cloudy 91 m
Mostly cloudy 701 m
Overcast 1859 m
2021/11/27 22:20 EKKA 272220Z AUTO 03005KT 9999 -SN BKN003/// BKN023/// OVC061/// 00/00 Q0995
 
EKOD - Odense/Beldringe, Denmark
Distance from station: SSW 116km
Updated: 27/11/2021 14:50
NOT Current
Mostly cloudy
Mostly cloudy
 Wind from ENE
Wind: ENE 20 km/h
Temperature: 4°C
Wind Chill: -1°C
Dew Point: 3°C
Humidity: 93%
Barometer: 993 hPa
Clouds: Mostly cloudy
Visibility: 10 km
Cloud details: Few Clouds 396 m
Mostly cloudy 792 m
Mostly cloudy 2896 m
2021/11/27 13:50 EKOD 271350Z 07011KT 9999 FEW013 BKN026 BKN095 04/03 Q0993
EKBI - Billund Airport, Denmark
Distance from station: SW 134km
Updated: 27/11/2021 23:20
Overcast
Overcast
 Wind from NNE
Wind: NNE 13 km/h
Temperature: 1°C
Wind Chill: -3°C
Dew Point: 1°C
Humidity: 100%
Barometer: 995 hPa
Clouds: Overcast
Visibility: 10 km
Cloud details: Few Clouds 122 m
Overcast 2073 m
2021/11/27 22:20 EKBI 272220Z AUTO 02007KT 9999 FEW004/// OVC068/// 01/01 Q0995
EKCH - Copenhagen/Kastr, Denmark
Distance from station: SE 148km
Updated: 27/11/2021 23:20
Light rain, Overcast
Light rain, Overcast
 Wind from ENE
Wind: ENE 13 km/h
Temperature: 3°C
Wind Chill: -1°C
Dew Point: 2°C
Humidity: 93%
Barometer: 995 hPa
Summary: Light rain
Clouds: Overcast
Visibility: 10 km
Cloud details: Overcast 1189 m
2021/11/27 22:20 EKCH 272220Z AUTO 07007KT 9999 -RA OVC039/// 03/02 Q0995 RERA TEMPO 4000 SHRASN BKN008 BKN020CB